createdAt,value
2023-04-21T00:02:16.269Z,101119.34
2023-04-21T00:07:20.495Z,101126.38
2023-04-21T00:12:22.563Z,101121.03
2023-04-21T00:17:24.735Z,101115.69
2023-04-21T00:22:26.731Z,101116.53
2023-04-21T00:27:28.736Z,101111.16
2023-04-21T00:32:31.301Z,101111.09
2023-04-21T00:37:33.443Z,101104.81
2023-04-21T00:42:35.446Z,101102.06
2023-04-21T00:47:37.529Z,101109.97
2023-04-21T00:52:41.282Z,101111.66
2023-04-21T00:57:44.145Z,101101.84
2023-04-21T01:02:46.838Z,101107.97
2023-04-21T01:07:49.721Z,101102.59
2023-04-21T01:12:51.769Z,101098.97
2023-04-21T01:17:54.581Z,101092.78
2023-04-21T01:22:56.744Z,101095.34
2023-04-21T01:27:58.836Z,101109.41
2023-04-21T01:33:01.025Z,101103.16
2023-04-21T01:38:03.090Z,101106.56
2023-04-21T01:43:05.845Z,101098.53
2023-04-21T01:48:08.028Z,101094.94
2023-04-21T01:53:10.163Z,101097.50
2023-04-21T01:58:12.107Z,101108.88
2023-04-21T02:03:14.469Z,101092.91
2023-04-21T02:08:17.741Z,101093.72
2023-04-21T02:13:19.756Z,101104.22
2023-04-21T02:18:22.002Z,101092.63
2023-04-21T02:23:23.956Z,101093.41
2023-04-21T02:28:25.953Z,101096.88
2023-04-21T02:33:28.054Z,101109.16
2023-04-21T02:38:30.751Z,101108.16
2023-04-21T02:43:32.755Z,101108.94
2023-04-21T02:48:35.648Z,101107.00
2023-04-21T02:53:37.891Z,101100.72
2023-04-21T02:58:40.122Z,101109.50
2023-04-21T03:03:42.278Z,101107.59
2023-04-21T03:08:44.313Z,101103.97
2023-04-21T03:13:46.409Z,101101.22
2023-04-21T03:18:48.399Z,101107.25
2023-04-21T03:23:50.514Z,101104.50
2023-04-21T03:28:52.505Z,101099.97
2023-04-21T03:33:54.573Z,101095.50
2023-04-21T03:39:01.022Z,101103.28
2023-04-21T03:44:08.289Z,101111.09
2023-04-21T03:49:10.449Z,101104.78
2023-04-21T03:54:12.484Z,101101.13
2023-04-21T03:59:14.442Z,101105.44
2023-04-21T04:04:16.768Z,101100.06
2023-04-21T04:09:18.874Z,101112.28
2023-04-21T04:14:21.232Z,101106.09
2023-04-21T04:19:23.277Z,101110.44
2023-04-21T04:24:26.936Z,101116.53
2023-04-21T04:29:29.418Z,101122.63
2023-04-21T04:34:31.370Z,101120.84
2023-04-21T04:39:33.392Z,101117.34
2023-04-21T04:44:35.853Z,101124.50
2023-04-21T04:49:38.276Z,101127.41
2023-04-21T04:54:40.845Z,101123.38
2023-04-21T04:59:42.933Z,101123.81
2023-04-21T05:04:45.138Z,101119.06
2023-04-21T05:09:47.408Z,101125.00
2023-04-21T05:14:49.452Z,101126.44
2023-04-21T05:19:51.762Z,101124.31
2023-04-21T05:24:54.256Z,101119.50
2023-04-21T05:29:56.327Z,101122.63
2023-04-21T05:35:00.270Z,101124.75
2023-04-21T05:40:02.440Z,101130.34
2023-04-21T05:45:05.265Z,101124.38
2023-04-21T05:50:08.932Z,101121.88
2023-04-21T05:55:11.284Z,101121.06
2023-04-21T06:00:14.242Z,101122.00
2023-04-21T06:05:16.579Z,101122.84
2023-04-21T06:10:19.324Z,101120.00
2023-04-21T06:15:21.319Z,101120.81
2023-04-21T06:20:23.593Z,101116.94
2023-04-21T06:25:25.673Z,101112.16
2023-04-21T06:30:27.865Z,101110.78
2023-04-21T06:35:29.890Z,101104.06
2023-04-21T06:40:31.993Z,101108.03
2023-04-21T06:45:34.080Z,101101.09
2023-04-21T06:50:36.176Z,101104.00
2023-04-21T06:55:38.362Z,101100.56
2023-04-21T07:00:40.750Z,101095.38
2023-04-21T07:05:42.973Z,101098.03
2023-04-21T07:10:45.248Z,101095.41
2023-04-21T07:15:47.202Z,101099.16
2023-04-21T07:20:49.275Z,101094.69
2023-04-21T07:25:52.055Z,101095.47
2023-04-21T07:30:54.335Z,101099.88
2023-04-21T07:35:56.713Z,101092.59
2023-04-21T07:41:00.284Z,101090.06
2023-04-21T07:46:02.498Z,101094.47
2023-04-21T07:51:04.801Z,101087.22
2023-04-21T07:56:07.799Z,101076.16
2023-04-21T08:01:10.172Z,101083.28
2023-04-21T08:06:12.418Z,101080.53
2023-04-21T08:11:14.810Z,101087.31
2023-04-21T08:16:16.990Z,101078.06
2023-04-21T08:21:20.063Z,101077.88
2023-04-21T08:26:24.117Z,101077.59
2023-04-21T08:31:26.472Z,101081.25
2023-04-21T08:36:30.173Z,101079.00
2023-04-21T08:41:32.963Z,101074.41
2023-04-21T08:46:36.804Z,101072.44
2023-04-21T08:51:39.007Z,101068.91
2023-04-21T08:56:41.588Z,101071.59
2023-04-21T09:02:10.375Z,101065.03
2023-04-21T09:07:13.214Z,101060.81
2023-04-21T09:12:15.326Z,101065.03
2023-04-21T09:17:19.116Z,101058.81
2023-04-21T09:22:21.367Z,101046.75
2023-04-21T09:27:23.635Z,101045.25
2023-04-21T09:32:25.826Z,101043.00
2023-04-21T09:37:34.823Z,101044.94
2023-04-21T09:42:39.697Z,101041.59
2023-04-21T09:47:43.319Z,101042.75
2023-04-21T09:52:48.521Z,101035.94
2023-04-21T09:57:52.660Z,101032.88
2023-04-21T10:02:56.136Z,101026.91
2023-04-21T10:07:58.960Z,101026.75
2023-04-21T10:13:01.693Z,101024.66
2023-04-21T10:18:16.680Z,101026.69
2023-04-21T10:23:33.323Z,101024.41
2023-04-21T10:28:55.592Z,101025.81
2023-04-21T10:34:07.745Z,101016.34
2023-04-21T10:39:13.410Z,101011.34
2023-04-21T10:44:17.253Z,101005.19
2023-04-21T10:49:26.349Z,101005.41
2023-04-21T10:54:36.757Z,100997.56
2023-04-21T10:59:39.721Z,100992.03
2023-04-21T11:04:48.381Z,100986.16
2023-04-21T11:10:16.415Z,100981.19
2023-04-21T11:15:18.603Z,100973.28
2023-04-21T11:20:21.293Z,100957.03
2023-04-21T11:25:23.588Z,100956.41
2023-04-21T11:30:34.562Z,100940.38
2023-04-21T11:35:41.336Z,100950.19
2023-04-21T11:40:47.326Z,100935.63
2023-04-21T11:45:50.954Z,100940.53
2023-04-21T11:50:53.208Z,100937.81
2023-04-21T11:55:57.178Z,100931.91
2023-04-21T12:01:07.473Z,100934.03
2023-04-21T12:06:09.711Z,100923.75
2023-04-21T12:11:11.898Z,100921.25
2023-04-21T12:16:14.198Z,100915.16
2023-04-21T12:21:17.205Z,100902.91
2023-04-21T12:26:19.346Z,100909.22
2023-04-21T12:31:21.616Z,100902.31
2023-04-21T12:36:23.934Z,100890.19
2023-04-21T12:41:26.140Z,100885.53
2023-04-21T12:46:28.949Z,100880.41
2023-04-21T12:51:31.841Z,100881.63
2023-04-21T12:56:33.876Z,100876.63
2023-04-21T13:01:39.775Z,100865.06
2023-04-21T13:06:42.200Z,100871.91
2023-04-21T13:11:44.327Z,100857.75
2023-04-21T13:16:46.953Z,100852.03
2023-04-21T13:21:49.094Z,100850.72
2023-04-21T13:26:51.265Z,100837.59
2023-04-21T13:31:53.511Z,100846.56
2023-04-21T13:36:55.632Z,100836.44
2023-04-21T13:41:58.272Z,100826.25
2023-04-21T13:47:01.001Z,100814.13
2023-04-21T13:52:03.290Z,100816.06
2023-04-21T13:57:06.084Z,100807.09
2023-04-21T14:02:08.826Z,100800.97
2023-04-21T14:07:11.388Z,100797.97
2023-04-21T14:12:13.592Z,100796.41
2023-04-21T14:17:17.286Z,100787.34
2023-04-21T14:22:21.024Z,100778.38
2023-04-21T14:27:23.191Z,100778.44
2023-04-21T14:32:26.098Z,100766.84
2023-04-21T14:37:28.332Z,100760.50
2023-04-21T14:42:30.642Z,100763.41
2023-04-21T14:47:33.485Z,100755.25
2023-04-21T14:52:36.413Z,100749.19
2023-04-21T14:57:41.752Z,100755.56
2023-04-21T15:02:44.397Z,100753.13
2023-04-21T15:07:46.621Z,100742.38
2023-04-21T15:12:48.700Z,100734.13
2023-04-21T15:17:51.140Z,100729.66
2023-04-21T15:22:53.234Z,100729.69
2023-04-21T15:27:55.331Z,100724.22
2023-04-21T15:32:57.395Z,100722.53
2023-04-21T15:37:59.441Z,100720.59
2023-04-21T15:43:01.977Z,100717.84
2023-04-21T15:48:04.222Z,100714.97
2023-04-21T15:53:20.244Z,100704.03
2023-04-21T15:58:23.017Z,100701.97
2023-04-21T16:03:25.806Z,100699.38
2023-04-21T16:08:28.767Z,100702.81
2023-04-21T16:13:33.151Z,100698.16
2023-04-21T16:18:36.095Z,100691.59
2023-04-21T16:23:42.825Z,100698.53
2023-04-21T16:28:45.410Z,100688.38
2023-04-21T16:33:48.304Z,100687.19
2023-04-21T16:38:50.333Z,100688.75
2023-04-21T16:43:56.081Z,100687.50
2023-04-21T16:49:01.536Z,100681.81
2023-04-21T16:54:18.496Z,100681.59
2023-04-21T16:59:26.450Z,100674.06
2023-04-21T17:04:36.265Z,100675.53
2023-04-21T17:09:42.859Z,100677.91
2023-04-21T17:14:45.388Z,100676.75
2023-04-21T17:19:48.708Z,100679.09
2023-04-21T17:24:53.133Z,100680.63
2023-04-21T17:29:57.257Z,100679.50
2023-04-21T17:34:59.437Z,100674.81
2023-04-21T17:40:03.268Z,100680.00
2023-04-21T17:45:07.844Z,100681.53
2023-04-21T17:50:12.142Z,100679.47
2023-04-21T17:55:16.702Z,100678.31
2023-04-21T18:00:19.631Z,100677.16
2023-04-21T18:05:22.196Z,100681.41
2023-04-21T18:10:24.801Z,100680.22
2023-04-21T18:15:28.951Z,100681.75
2023-04-21T18:20:32.500Z,100679.72
2023-04-21T18:25:42.708Z,100692.75
2023-04-21T18:30:47.445Z,100687.09
2023-04-21T18:35:51.658Z,100687.72
2023-04-21T18:40:57.310Z,100689.94
2023-04-21T18:46:01.227Z,100682.41
2023-04-21T18:51:04.150Z,100677.56
2023-04-21T18:56:06.845Z,100685.22
2023-04-21T19:01:09.681Z,100680.28
2023-04-21T19:06:14.238Z,100685.16
2023-04-21T19:11:32.401Z,100672.19
2023-04-21T19:16:37.534Z,100680.72
2023-04-21T19:21:40.402Z,100673.06
2023-04-21T19:26:43.045Z,100672.47
2023-04-21T19:31:45.869Z,100674.50
2023-04-21T19:36:52.462Z,100680.19
2023-04-21T19:41:55.347Z,100679.66
2023-04-21T19:47:01.797Z,100672.00
2023-04-21T19:52:05.751Z,100674.94
2023-04-21T19:57:10.940Z,100674.38
2023-04-21T20:02:20.563Z,100674.56
2023-04-21T20:07:25.677Z,100669.44
2023-04-21T20:12:29.019Z,100661.75
2023-04-21T20:17:32.101Z,100670.88
2023-04-21T20:22:34.889Z,100680.88
2023-04-21T20:27:39.744Z,100669.59
2023-04-21T20:32:51.419Z,100683.94
2023-04-21T20:38:07.243Z,100675.25
2023-04-21T20:43:21.008Z,100683.44
2023-04-21T20:48:24.625Z,100681.88
2023-04-21T20:53:27.248Z,100683.78
2023-04-21T20:58:29.602Z,100682.13
2023-04-21T21:03:32.685Z,100691.13
2023-04-21T21:08:35.442Z,100686.81
2023-04-21T21:13:37.732Z,100687.81
2023-04-21T21:18:39.782Z,100694.16
2023-04-21T21:23:42.681Z,100699.59
2023-04-21T21:28:44.806Z,100696.13
2023-04-21T21:33:46.777Z,100695.34
2023-04-21T21:38:58.150Z,100700.75
2023-04-21T21:44:01.838Z,100705.25
2023-04-21T21:49:09.128Z,100699.09
2023-04-21T21:54:12.061Z,100705.38
2023-04-21T21:59:30.875Z,100708.97
2023-04-21T22:04:34.972Z,100709.88
2023-04-21T22:09:39.956Z,100709.91
2023-04-21T22:14:47.090Z,100716.16
2023-04-21T22:19:51.967Z,100710.88
2023-04-21T22:24:55.635Z,100691.41
2023-04-21T22:30:03.117Z,100694.09
2023-04-21T22:35:06.053Z,100691.47
2023-04-21T22:40:11.323Z,100702.13
2023-04-21T22:45:14.050Z,100695.03
2023-04-21T22:50:17.630Z,100703.00
2023-04-21T22:55:21.158Z,100697.69
2023-04-21T23:00:23.209Z,100707.44
2023-04-21T23:05:25.206Z,100702.09
2023-04-21T23:10:29.361Z,100703.88
2023-04-21T23:15:32.367Z,100704.75
2023-04-21T23:20:34.601Z,100707.41
2023-04-21T23:25:36.506Z,100710.03
2023-04-21T23:30:38.678Z,100712.66
2023-04-21T23:35:40.771Z,100705.56
2023-04-21T23:40:42.749Z,100706.38
2023-04-21T23:45:44.843Z,100706.34
2023-04-21T23:50:46.909Z,100702.75
2023-04-21T23:55:49.008Z,100703.59
